UAE326 OJAI-OMDB
Flight info
| Callsign | UAE326 |
|---|---|
| Flight time | 1h 6m |
| Altitude | 35000 |
| Route | KULDI N318 NEVOL Q255 LUDEP P559 VUTEB |
| Aircraft | B77W/H-SDE1E2E3FGHIJ2J3J4J5M1RWXY/LB1D1 |
Departure
| Time | 2026-05-07 15:20 |
|---|---|
| Airport | Queen Alia International Airport (OJAI) |
Arrival
| Time | 2026-05-07 16:27 |
|---|---|
| Airport | Dubai International Airport (OMDB) |
| Time | Latitude | Longitude | Altitude | Speed | Heading |
|---|---|---|---|---|---|
| 2026-05-07 14:54 | 31.72036 | 35.98713 | 2420 ft | 0 kts | 349° |
| 2026-05-07 15:11 | 31.72026 | 35.98715 | 2420 ft | 2 kts | 358° |
| 2026-05-07 15:11 | 31.72010 | 35.98715 | 2420 ft | 2 kts | 10° |
| 2026-05-07 15:11 | 31.71994 | 35.98709 | 2418 ft | 2 kts | 29° |
| 2026-05-07 15:11 | 31.71980 | 35.98698 | 2418 ft | 2 kts | 49° |
| 2026-05-07 15:12 | 31.71971 | 35.98683 | 2419 ft | 2 kts | 64° |
| 2026-05-07 15:12 | 31.71966 | 35.98671 | 2420 ft | 2 kts | 72° |
| 2026-05-07 15:12 | 31.71962 | 35.98654 | 2419 ft | 1 kts | 79° |
| 2026-05-07 15:12 | 31.71962 | 35.98650 | 2419 ft | 0 kts | 80° |
| 2026-05-07 15:15 | 31.71964 | 35.98666 | 2420 ft | 9 kts | 80° |
| 2026-05-07 15:15 | 31.71978 | 35.98763 | 2421 ft | 13 kts | 80° |
| 2026-05-07 15:16 | 31.71975 | 35.98879 | 2421 ft | 17 kts | 125° |
| 2026-05-07 15:16 | 31.71868 | 35.98954 | 2421 ft | 18 kts | 124° |
| 2026-05-07 15:16 | 31.71869 | 35.99110 | 2420 ft | 22 kts | 80° |
| 2026-05-07 15:16 | 31.71898 | 35.99306 | 2421 ft | 28 kts | 80° |
| 2026-05-07 15:17 | 31.71938 | 35.99579 | 2421 ft | 40 kts | 80° |
| 2026-05-07 15:17 | 31.71997 | 35.99952 | 2422 ft | 52 kts | 79° |
| 2026-05-07 15:17 | 31.72059 | 36.00410 | 2422 ft | 62 kts | 80° |
| 2026-05-07 15:17 | 31.72126 | 36.00866 | 2422 ft | 52 kts | 81° |
| 2026-05-07 15:18 | 31.72184 | 36.01262 | 2420 ft | 48 kts | 81° |
| 2026-05-07 15:18 | 31.72235 | 36.01615 | 2420 ft | 23 kts | 80° |
| 2026-05-07 15:18 | 31.72236 | 36.01780 | 2421 ft | 9 kts | 125° |
| 2026-05-07 15:18 | 31.72175 | 36.01810 | 2420 ft | 11 kts | 168° |
| 2026-05-07 15:19 | 31.72064 | 36.01834 | 2421 ft | 21 kts | 171° |
| 2026-05-07 15:19 | 31.71993 | 36.01816 | 2421 ft | 3 kts | 214° |
| 2026-05-07 15:19 | 31.71979 | 36.01764 | 2425 ft | 11 kts | 259° |
| 2026-05-07 15:19 | 31.71957 | 36.01616 | 2421 ft | 29 kts | 260° |
| 2026-05-07 15:20 | 31.71894 | 36.01188 | 2420 ft | 86 kts | 260° |
| 2026-05-07 15:20 | 31.71755 | 36.00231 | 2421 ft | 149 kts | 260° |
| 2026-05-07 15:20 | 31.71560 | 35.98851 | 2557 ft | 183 kts | 262° |
| 2026-05-07 15:20 | 31.71345 | 35.97351 | 3123 ft | 186 kts | 264° |
| 2026-05-07 15:21 | 31.71130 | 35.95849 | 3850 ft | 185 kts | 263° |
| 2026-05-07 15:21 | 31.70904 | 35.94291 | 4228 ft | 204 kts | 263° |
| 2026-05-07 15:21 | 31.70645 | 35.92535 | 4479 ft | 233 kts | 262° |
| 2026-05-07 15:21 | 31.70349 | 35.90539 | 4812 ft | 258 kts | 261° |
| 2026-05-07 15:22 | 31.69842 | 35.88520 | 5505 ft | 263 kts | 239° |
| 2026-05-07 15:22 | 31.68610 | 35.86939 | 6298 ft | 263 kts | 219° |
| 2026-05-07 15:22 | 31.67203 | 35.85561 | 7028 ft | 271 kts | 220° |
| 2026-05-07 15:22 | 31.65772 | 35.84134 | 7964 ft | 268 kts | 220° |
| 2026-05-07 15:23 | 31.64336 | 35.82711 | 8808 ft | 270 kts | 217° |
| 2026-05-07 15:23 | 31.62632 | 35.81784 | 9596 ft | 274 kts | 191° |
| 2026-05-07 15:23 | 31.60706 | 35.81844 | 10323 ft | 285 kts | 167° |
| 2026-05-07 15:23 | 31.58860 | 35.82892 | 10636 ft | 313 kts | 141° |
| 2026-05-07 15:24 | 31.57506 | 35.85011 | 10813 ft | 340 kts | 118° |
| 2026-05-07 15:24 | 31.56509 | 35.87636 | 11032 ft | 365 kts | 115° |
| 2026-05-07 15:24 | 31.55491 | 35.90461 | 11405 ft | 384 kts | 114° |
| 2026-05-07 15:24 | 31.54440 | 35.93364 | 12124 ft | 392 kts | 115° |
| 2026-05-07 15:25 | 31.53341 | 35.96341 | 12863 ft | 399 kts | 115° |
| 2026-05-07 15:25 | 31.52214 | 35.99345 | 13629 ft | 405 kts | 116° |
| 2026-05-07 15:25 | 31.51075 | 36.02342 | 14360 ft | 411 kts | 116° |
| 2026-05-07 15:25 | 31.49903 | 36.05412 | 15129 ft | 414 kts | 116° |
| 2026-05-07 15:26 | 31.48732 | 36.08474 | 15895 ft | 418 kts | 116° |
| 2026-05-07 15:26 | 31.47518 | 36.11640 | 16657 ft | 423 kts | 116° |
| 2026-05-07 15:26 | 31.46305 | 36.14799 | 17375 ft | 429 kts | 115° |
| 2026-05-07 15:26 | 31.45075 | 36.18001 | 18099 ft | 434 kts | 116° |
| 2026-05-07 15:27 | 31.43828 | 36.21244 | 18762 ft | 438 kts | 115° |
| 2026-05-07 15:27 | 31.42569 | 36.24518 | 19380 ft | 443 kts | 115° |
| 2026-05-07 15:27 | 31.41295 | 36.27828 | 20025 ft | 447 kts | 115° |
| 2026-05-07 15:27 | 31.40015 | 36.31150 | 20749 ft | 448 kts | 115° |
| 2026-05-07 15:28 | 31.38732 | 36.34478 | 21476 ft | 450 kts | 115° |
| 2026-05-07 15:28 | 31.37442 | 36.37823 | 22243 ft | 451 kts | 115° |
| 2026-05-07 15:28 | 31.36151 | 36.41165 | 23015 ft | 451 kts | 115° |
| 2026-05-07 15:28 | 31.34856 | 36.44515 | 23767 ft | 451 kts | 115° |
| 2026-05-07 15:29 | 31.33578 | 36.47819 | 24435 ft | 451 kts | 115° |
| 2026-05-07 15:29 | 31.32287 | 36.51153 | 25118 ft | 450 kts | 115° |
| 2026-05-07 15:29 | 31.30779 | 36.57632 | 26379 ft | 444 kts | 94° |
| 2026-05-07 15:29 | 31.30092 | 36.69623 | 28855 ft | 437 kts | 93° |
| 2026-05-07 15:30 | 31.29096 | 36.83707 | 31163 ft | 435 kts | 94° |
| 2026-05-07 15:30 | 31.28012 | 36.98022 | 32568 ft | 447 kts | 95° |
| 2026-05-07 15:30 | 31.26894 | 37.12660 | 33907 ft | 456 kts | 95° |
| 2026-05-07 15:30 | 31.25122 | 37.27413 | 34872 ft | 464 kts | 109° |
| 2026-05-07 15:31 | 31.23811 | 37.31858 | 35023 ft | 470 kts | 111° |
| 2026-05-07 15:31 | 31.22687 | 37.35473 | 35006 ft | 478 kts | 112° |
| 2026-05-07 15:31 | 31.20395 | 37.42899 | 35006 ft | 493 kts | 111° |
| 2026-05-07 15:32 | 31.18086 | 37.50562 | 35002 ft | 507 kts | 111° |
| 2026-05-07 15:32 | 31.15725 | 37.58420 | 34999 ft | 516 kts | 111° |
| 2026-05-07 15:33 | 31.13326 | 37.66329 | 34989 ft | 517 kts | 111° |
| 2026-05-07 15:33 | 31.10935 | 37.74159 | 34977 ft | 508 kts | 111° |
| 2026-05-07 15:34 | 31.08563 | 37.81911 | 34984 ft | 507 kts | 111° |
| 2026-05-07 15:34 | 31.06185 | 37.89666 | 34982 ft | 508 kts | 111° |
| 2026-05-07 15:35 | 31.03801 | 37.97429 | 34988 ft | 509 kts | 111° |
| 2026-05-07 15:35 | 31.01424 | 38.05151 | 34985 ft | 509 kts | 111° |
| 2026-05-07 15:36 | 30.99024 | 38.12929 | 34989 ft | 510 kts | 112° |
| 2026-05-07 15:36 | 30.96617 | 38.20708 | 34987 ft | 510 kts | 112° |
| 2026-05-07 15:37 | 30.94205 | 38.28485 | 34986 ft | 510 kts | 112° |
| 2026-05-07 15:37 | 30.91788 | 38.36261 | 34988 ft | 510 kts | 112° |
| 2026-05-07 15:38 | 30.89366 | 38.44033 | 34985 ft | 510 kts | 112° |
| 2026-05-07 15:38 | 30.86031 | 38.54708 | 34995 ft | 509 kts | 112° |
| 2026-05-07 15:39 | 30.75625 | 38.85236 | 35026 ft | 505 kts | 120° |
| 2026-05-07 15:39 | 30.62975 | 39.14480 | 35021 ft | 507 kts | 121° |
| 2026-05-07 15:40 | 30.50331 | 39.43736 | 35036 ft | 507 kts | 122° |
| 2026-05-07 15:40 | 30.37803 | 39.73066 | 35030 ft | 510 kts | 120° |
| 2026-05-07 15:41 | 30.25982 | 40.02998 | 35036 ft | 511 kts | 121° |
| 2026-05-07 15:41 | 30.13974 | 40.32908 | 35029 ft | 513 kts | 122° |
| 2026-05-07 15:42 | 30.01835 | 40.62789 | 35024 ft | 515 kts | 123° |
| 2026-05-07 15:42 | 29.89579 | 40.92713 | 35016 ft | 516 kts | 124° |
| 2026-05-07 15:43 | 29.77251 | 41.22578 | 35013 ft | 516 kts | 124° |
| 2026-05-07 15:43 | 29.66715 | 41.53631 | 34984 ft | 522 kts | 118° |
| 2026-05-07 15:44 | 29.56950 | 41.84762 | 35005 ft | 520 kts | 118° |
| 2026-05-07 15:44 | 29.47088 | 42.15896 | 34981 ft | 517 kts | 119° |
| 2026-05-07 15:45 | 29.37198 | 42.46834 | 34985 ft | 515 kts | 120° |
| 2026-05-07 15:45 | 29.27264 | 42.77624 | 34978 ft | 515 kts | 120° |
| 2026-05-07 15:46 | 29.10630 | 43.22555 | 34963 ft | 501 kts | 131° |
| 2026-05-07 15:47 | 28.96435 | 43.50182 | 34949 ft | 506 kts | 130° |
| 2026-05-07 15:47 | 28.82071 | 43.77972 | 34964 ft | 509 kts | 130° |
| 2026-05-07 15:48 | 28.67601 | 44.05791 | 34942 ft | 511 kts | 130° |
| 2026-05-07 15:48 | 28.53051 | 44.33577 | 34928 ft | 510 kts | 130° |
| 2026-05-07 15:49 | 28.38465 | 44.61245 | 34935 ft | 510 kts | 130° |
| 2026-05-07 15:49 | 28.23842 | 44.88804 | 34945 ft | 510 kts | 130° |
| 2026-05-07 15:50 | 28.09158 | 45.16327 | 34931 ft | 510 kts | 130° |
| 2026-05-07 15:50 | 27.94532 | 45.43642 | 34939 ft | 511 kts | 130° |
| 2026-05-07 15:50 | 27.87776 | 45.57908 | 34915 ft | 527 kts | 118° |
| 2026-05-07 15:51 | 27.84204 | 45.74208 | 34926 ft | 537 kts | 109° |
| 2026-05-07 15:51 | 27.77441 | 46.07087 | 34963 ft | 539 kts | 110° |
| 2026-05-07 15:52 | 27.70517 | 46.40151 | 34966 ft | 543 kts | 110° |
| 2026-05-07 15:52 | 27.63501 | 46.73409 | 34950 ft | 546 kts | 110° |
| 2026-05-07 15:53 | 27.56374 | 47.06761 | 34945 ft | 548 kts | 110° |
| 2026-05-07 15:53 | 27.52891 | 47.22915 | 34924 ft | 549 kts | 110° |
| 2026-05-07 15:54 | 27.51083 | 47.31262 | 34923 ft | 548 kts | 110° |
| 2026-05-07 15:54 | 27.49274 | 47.39591 | 34915 ft | 547 kts | 110° |
| 2026-05-07 15:55 | 27.47464 | 47.47897 | 34911 ft | 545 kts | 110° |
| 2026-05-07 15:55 | 27.45655 | 47.56175 | 34908 ft | 544 kts | 110° |
| 2026-05-07 15:56 | 27.43755 | 47.64391 | 34902 ft | 539 kts | 113° |
| 2026-05-07 15:56 | 27.41871 | 47.71073 | 34907 ft | 537 kts | 115° |
| 2026-05-07 15:57 | 27.39169 | 47.80364 | 34902 ft | 537 kts | 114° |
| 2026-05-07 15:57 | 27.36876 | 47.88367 | 34900 ft | 537 kts | 114° |
| 2026-05-07 15:58 | 27.34967 | 47.95069 | 34895 ft | 537 kts | 114° |
| 2026-05-07 15:58 | 27.32683 | 48.03073 | 34892 ft | 538 kts | 114° |
| 2026-05-07 15:59 | 27.30414 | 48.11039 | 34890 ft | 538 kts | 113° |
| 2026-05-07 15:59 | 27.28268 | 48.19113 | 34888 ft | 540 kts | 112° |
| 2026-05-07 16:00 | 27.22234 | 48.42063 | 34883 ft | 540 kts | 112° |
| 2026-05-07 16:00 | 27.13564 | 48.74436 | 34874 ft | 542 kts | 112° |
| 2026-05-07 16:01 | 27.08896 | 49.08074 | 34874 ft | 554 kts | 96° |
| 2026-05-07 16:01 | 27.07318 | 49.42669 | 34845 ft | 554 kts | 97° |
| 2026-05-07 16:02 | 27.05615 | 49.77183 | 34843 ft | 553 kts | 97° |
| 2026-05-07 16:02 | 27.04702 | 50.11591 | 34879 ft | 553 kts | 92° |
| 2026-05-07 16:03 | 27.02044 | 50.45628 | 34804 ft | 539 kts | 117° |
| 2026-05-07 16:03 | 26.90178 | 50.76424 | 34819 ft | 538 kts | 118° |
| 2026-05-07 16:04 | 26.78371 | 51.07190 | 34825 ft | 538 kts | 118° |
| 2026-05-07 16:04 | 26.68118 | 51.38765 | 34823 ft | 540 kts | 115° |
| 2026-05-07 16:05 | 26.57913 | 51.70458 | 34826 ft | 541 kts | 114° |
| 2026-05-07 16:05 | 26.47588 | 52.01964 | 34821 ft | 540 kts | 115° |
| 2026-05-07 16:06 | 26.37079 | 52.33312 | 34819 ft | 540 kts | 114° |
| 2026-05-07 16:06 | 26.25487 | 52.64176 | 34824 ft | 537 kts | 117° |
| 2026-05-07 16:07 | 26.16106 | 52.88626 | 34816 ft | 537 kts | 117° |
| 2026-05-07 16:07 | 26.08087 | 53.09598 | 34804 ft | 538 kts | 115° |
| 2026-05-07 16:08 | 25.97158 | 53.39433 | 34806 ft | 537 kts | 115° |
| 2026-05-07 16:08 | 25.94342 | 53.47053 | 34816 ft | 537 kts | 115° |
| 2026-05-07 16:09 | 25.91568 | 53.54762 | 34813 ft | 537 kts | 114° |
| 2026-05-07 16:09 | 25.88914 | 53.62514 | 34811 ft | 536 kts | 114° |
| 2026-05-07 16:10 | 25.86236 | 53.70242 | 34666 ft | 537 kts | 114° |
| 2026-05-07 16:10 | 25.84890 | 53.74122 | 34345 ft | 539 kts | 114° |
| 2026-05-07 16:10 | 25.83546 | 53.78001 | 34010 ft | 537 kts | 114° |
| 2026-05-07 16:10 | 25.82207 | 53.81868 | 33648 ft | 536 kts | 114° |
| 2026-05-07 16:11 | 25.80872 | 53.85723 | 33270 ft | 534 kts | 114° |
| 2026-05-07 16:11 | 25.79542 | 53.89558 | 32896 ft | 533 kts | 114° |
| 2026-05-07 16:11 | 25.78210 | 53.93395 | 32529 ft | 531 kts | 114° |
| 2026-05-07 16:11 | 25.76884 | 53.97209 | 32049 ft | 532 kts | 114° |
| 2026-05-07 16:12 | 25.75525 | 54.01112 | 31534 ft | 534 kts | 114° |
| 2026-05-07 16:12 | 25.72697 | 54.10045 | 30454 ft | 535 kts | 110° |
| 2026-05-07 16:12 | 25.67995 | 54.25566 | 28402 ft | 523 kts | 111° |
| 2026-05-07 16:12 | 25.63378 | 54.40505 | 26334 ft | 500 kts | 110° |
| 2026-05-07 16:13 | 25.59071 | 54.54784 | 24395 ft | 478 kts | 105° |
| 2026-05-07 16:13 | 25.59022 | 54.69099 | 22393 ft | 457 kts | 82° |
| 2026-05-07 16:13 | 25.60847 | 54.82737 | 20317 ft | 438 kts | 83° |
| 2026-05-07 16:13 | 25.57916 | 54.95056 | 18409 ft | 412 kts | 115° |
| 2026-05-07 16:14 | 25.53229 | 55.06387 | 16348 ft | 399 kts | 120° |
| 2026-05-07 16:14 | 25.47630 | 55.16839 | 14354 ft | 389 kts | 120° |
| 2026-05-07 16:14 | 25.41079 | 55.26098 | 12330 ft | 380 kts | 134° |
| 2026-05-07 16:14 | 25.34354 | 55.33631 | 10544 ft | 372 kts | 150° |
| 2026-05-07 16:15 | 25.25061 | 55.38859 | 9732 ft | 374 kts | 153° |
| 2026-05-07 16:15 | 25.21184 | 55.41127 | 9721 ft | 366 kts | 153° |
| 2026-05-07 16:15 | 25.18942 | 55.42441 | 9764 ft | 364 kts | 153° |
| 2026-05-07 16:15 | 25.16715 | 55.43745 | 9736 ft | 358 kts | 153° |
| 2026-05-07 16:16 | 25.14575 | 55.44997 | 9681 ft | 347 kts | 153° |
| 2026-05-07 16:16 | 25.12485 | 55.46224 | 9566 ft | 333 kts | 152° |
| 2026-05-07 16:16 | 25.10699 | 55.47808 | 9169 ft | 331 kts | 129° |
| 2026-05-07 16:16 | 25.09483 | 55.49929 | 8817 ft | 325 kts | 121° |
| 2026-05-07 16:17 | 25.08333 | 55.52063 | 8457 ft | 320 kts | 122° |
| 2026-05-07 16:17 | 25.07205 | 55.54113 | 7939 ft | 306 kts | 122° |
| 2026-05-07 16:17 | 25.06105 | 55.56086 | 7468 ft | 299 kts | 123° |
| 2026-05-07 16:17 | 25.04040 | 55.59771 | 6396 ft | 296 kts | 122° |
| 2026-05-07 16:18 | 25.01135 | 55.65025 | 5115 ft | 280 kts | 122° |
| 2026-05-07 16:18 | 25.00137 | 55.66825 | 5055 ft | 269 kts | 122° |
| 2026-05-07 16:18 | 24.99181 | 55.68532 | 5026 ft | 255 kts | 122° |
| 2026-05-07 16:18 | 24.97826 | 55.70949 | 5006 ft | 231 kts | 122° |
| 2026-05-07 16:19 | 24.96191 | 55.73869 | 5110 ft | 222 kts | 123° |
| 2026-05-07 16:19 | 24.94775 | 55.76626 | 5051 ft | 224 kts | 104° |
| 2026-05-07 16:19 | 24.94847 | 55.78285 | 5057 ft | 217 kts | 67° |
| 2026-05-07 16:19 | 24.96268 | 55.80059 | 5067 ft | 210 kts | 32° |
| 2026-05-07 16:20 | 25.00937 | 55.80198 | 5073 ft | 203 kts | 306° |
| 2026-05-07 16:20 | 25.03529 | 55.75663 | 5160 ft | 216 kts | 303° |
| 2026-05-07 16:20 | 25.04423 | 55.74350 | 5092 ft | 212 kts | 306° |
| 2026-05-07 16:20 | 25.05870 | 55.71993 | 5016 ft | 201 kts | 301° |
| 2026-05-07 16:21 | 25.07356 | 55.69380 | 5018 ft | 198 kts | 301° |
| 2026-05-07 16:21 | 25.08812 | 55.66801 | 5059 ft | 204 kts | 301° |
| 2026-05-07 16:21 | 25.10328 | 55.64101 | 5048 ft | 211 kts | 301° |
| 2026-05-07 16:21 | 25.11937 | 55.61225 | 4567 ft | 226 kts | 301° |
| 2026-05-07 16:22 | 25.13558 | 55.58321 | 3966 ft | 210 kts | 300° |
| 2026-05-07 16:22 | 25.14668 | 55.56331 | 3561 ft | 188 kts | 301° |
| 2026-05-07 16:22 | 25.15329 | 55.55153 | 3326 ft | 175 kts | 301° |
| 2026-05-07 16:22 | 25.15973 | 55.53994 | 3134 ft | 180 kts | 300° |
| 2026-05-07 16:23 | 25.16615 | 55.52835 | 2885 ft | 172 kts | 300° |
| 2026-05-07 16:23 | 25.17230 | 55.51726 | 2683 ft | 166 kts | 301° |
| 2026-05-07 16:23 | 25.17832 | 55.50641 | 2497 ft | 165 kts | 300° |
| 2026-05-07 16:23 | 25.18409 | 55.49597 | 2292 ft | 155 kts | 300° |
| 2026-05-07 16:24 | 25.18960 | 55.48602 | 2085 ft | 150 kts | 300° |
| 2026-05-07 16:24 | 25.19509 | 55.47609 | 1913 ft | 153 kts | 300° |
| 2026-05-07 16:24 | 25.20067 | 55.46601 | 1724 ft | 154 kts | 300° |
| 2026-05-07 16:24 | 25.20622 | 55.45600 | 1519 ft | 151 kts | 300° |
| 2026-05-07 16:25 | 25.21167 | 55.44613 | 1336 ft | 151 kts | 300° |
| 2026-05-07 16:25 | 25.21720 | 55.43619 | 1150 ft | 153 kts | 300° |
| 2026-05-07 16:25 | 25.22277 | 55.42607 | 951 ft | 154 kts | 300° |
| 2026-05-07 16:25 | 25.22827 | 55.41615 | 771 ft | 149 kts | 301° |
| 2026-05-07 16:26 | 25.23353 | 55.40643 | 554 ft | 146 kts | 300° |
| 2026-05-07 16:26 | 25.23883 | 55.39699 | 319 ft | 143 kts | 302° |
| 2026-05-07 16:26 | 25.24395 | 55.38777 | 176 ft | 140 kts | 301° |
| 2026-05-07 16:26 | 25.24722 | 55.38172 | 64 ft | 136 kts | 302° |
| 2026-05-07 16:27 | 25.25305 | 55.37127 | 35 ft | 91 kts | 302° |
| 2026-05-07 16:27 | 25.25547 | 55.36692 | 34 ft | 52 kts | 302° |
| 2026-05-07 16:27 | 25.25674 | 55.36349 | 34 ft | 43 kts | 275° |
| 2026-05-07 16:27 | 25.25677 | 55.36139 | 29 ft | 13 kts | 257° |
| 2026-05-07 16:28 | 25.25631 | 55.36071 | 27 ft | 9 kts | 217° |
| 2026-05-07 16:28 | 25.25578 | 55.36034 | 27 ft | 9 kts | 212° |
| 2026-05-07 16:28 | 25.25514 | 55.35990 | 26 ft | 13 kts | 212° |
| 2026-05-07 16:28 | 25.25418 | 55.35923 | 26 ft | 19 kts | 212° |
| 2026-05-07 16:29 | 25.25287 | 55.35852 | 28 ft | 23 kts | 186° |
| 2026-05-07 16:29 | 25.25219 | 55.35905 | 27 ft | 13 kts | 124° |
| 2026-05-07 16:29 | 25.25160 | 55.36005 | 30 ft | 18 kts | 122° |
| 2026-05-07 16:29 | 25.25084 | 55.36141 | 26 ft | 23 kts | 122° |
| 2026-05-07 16:30 | 25.25012 | 55.36262 | 26 ft | 10 kts | 142° |
| 2026-05-07 16:30 | 25.24970 | 55.36247 | 26 ft | 7 kts | 212° |
| 2026-05-07 16:30 | 25.24934 | 55.36224 | 30 ft | 2 kts | 210° |
| 2026-05-07 16:30 | 25.24928 | 55.36219 | 30 ft | 0 kts | 211° |